createdAt,value
2023-05-09T00:00:59.828Z,2.40
2023-05-09T00:03:34.955Z,2.65
2023-05-09T00:06:10.423Z,3.22
2023-05-09T00:08:46.626Z,2.42
2023-05-09T00:11:21.885Z,1.98
2023-05-09T00:13:56.690Z,3.78
2023-05-09T00:16:31.240Z,2.08
2023-05-09T00:19:05.551Z,8.85
2023-05-09T00:21:41.282Z,2.25
2023-05-09T00:24:17.775Z,8.57
2023-05-09T00:26:52.449Z,14.30
2023-05-09T00:29:26.978Z,6.88
2023-05-09T00:32:02.113Z,2.70
2023-05-09T00:34:36.902Z,4.63
2023-05-09T00:37:11.910Z,3.60
2023-05-09T00:39:48.147Z,1.85
2023-05-09T00:42:23.182Z,1.33
2023-05-09T00:44:58.253Z,3.35
2023-05-09T00:47:34.644Z,2.67
2023-05-09T00:50:09.157Z,1.25
2023-05-09T00:52:45.956Z,4.53
2023-05-09T00:55:23.355Z,7.68
2023-05-09T00:57:58.578Z,5.32
2023-05-09T01:00:33.041Z,4.72
2023-05-09T01:03:08.829Z,2.47
2023-05-09T01:05:47.864Z,5.05
2023-05-09T01:08:26.937Z,4.93
2023-05-09T01:11:06.284Z,4.10
2023-05-09T01:13:45.603Z,3.13
2023-05-09T01:16:25.316Z,2.40
2023-05-09T01:19:03.378Z,5.18
2023-05-09T01:21:39.112Z,5.25
2023-05-09T01:24:27.460Z,4.43
2023-05-09T01:27:11.322Z,4.05
2023-05-09T01:29:48.524Z,3.53
2023-05-09T01:32:24.497Z,4.95
2023-05-09T01:35:01.192Z,6.03
2023-05-09T01:37:37.999Z,5.07
2023-05-09T01:40:15.587Z,4.57
2023-05-09T01:42:52.890Z,6.85
2023-05-09T01:45:32.672Z,3.97
2023-05-09T01:48:07.877Z,5.72
2023-05-09T01:50:42.953Z,5.35
2023-05-09T01:53:20.181Z,3.75
2023-05-09T01:55:57.097Z,5.22
2023-05-09T01:58:33.616Z,5.32
2023-05-09T02:01:10.647Z,5.25
2023-05-09T02:03:45.853Z,5.60
2023-05-09T02:06:21.751Z,6.95
2023-05-09T02:08:56.118Z,5.97
2023-05-09T02:11:33.744Z,7.35
2023-05-09T02:14:08.520Z,4.70
2023-05-09T02:16:45.754Z,7.03
2023-05-09T02:19:20.228Z,5.13
2023-05-09T02:21:54.968Z,6.68
2023-05-09T02:24:30.120Z,7.55
2023-05-09T02:27:07.300Z,5.25
2023-05-09T02:29:44.361Z,4.78
2023-05-09T02:32:32.393Z,5.22
2023-05-09T02:35:07.750Z,7.53
2023-05-09T02:37:43.228Z,5.80
2023-05-09T02:40:18.550Z,6.30
2023-05-09T02:42:53.704Z,7.22
2023-05-09T02:45:29.356Z,4.88
2023-05-09T02:48:08.347Z,4.22
2023-05-09T02:50:44.521Z,5.68
2023-05-09T02:53:18.921Z,4.57
2023-05-09T02:55:53.651Z,7.10
2023-05-09T02:58:29.528Z,4.72
2023-05-09T03:01:04.024Z,4.78
2023-05-09T03:03:40.592Z,5.88
2023-05-09T03:06:15.942Z,7.82
2023-05-09T03:08:50.988Z,7.03
2023-05-09T03:11:29.643Z,5.57
2023-05-09T03:14:04.819Z,6.97
2023-05-09T03:16:39.898Z,7.15
2023-05-09T03:19:30.550Z,4.72
2023-05-09T03:22:05.756Z,4.95
2023-05-09T03:24:45.724Z,7.25
2023-05-09T03:27:20.443Z,6.05
2023-05-09T03:29:57.683Z,9.00
2023-05-09T03:32:32.893Z,5.65
2023-05-09T03:35:13.229Z,5.43
2023-05-09T03:37:48.429Z,8.40
2023-05-09T03:40:23.591Z,7.47
2023-05-09T03:43:07.265Z,5.55
2023-05-09T03:45:43.963Z,7.03
2023-05-09T03:48:21.253Z,8.52
2023-05-09T03:51:01.020Z,6.70
2023-05-09T03:53:37.966Z,6.00
2023-05-09T03:56:13.627Z,5.28
2023-05-09T03:58:53.906Z,7.68
2023-05-09T04:01:29.955Z,5.55
2023-05-09T04:04:06.400Z,8.65
2023-05-09T04:06:44.700Z,5.13
2023-05-09T04:09:19.749Z,5.43
2023-05-09T04:11:55.654Z,11.27
2023-05-09T04:14:30.342Z,9.52
2023-05-09T04:17:06.223Z,10.35
2023-05-09T04:19:41.070Z,7.50
2023-05-09T04:22:18.271Z,6.78
2023-05-09T04:24:53.003Z,6.93
2023-05-09T04:27:29.732Z,7.70
2023-05-09T04:30:05.525Z,7.97
2023-05-09T04:32:47.267Z,8.63
2023-05-09T04:35:22.302Z,10.05
2023-05-09T04:38:01.263Z,6.70
2023-05-09T04:40:35.896Z,8.00
2023-05-09T04:43:10.871Z,7.28
2023-05-09T04:45:45.623Z,6.90
2023-05-09T04:48:22.227Z,9.35
2023-05-09T04:50:57.402Z,7.85
2023-05-09T04:53:35.894Z,9.35
2023-05-09T04:56:10.525Z,10.65
2023-05-09T04:58:45.056Z,7.03
2023-05-09T05:01:21.990Z,9.63
2023-05-09T05:03:58.452Z,9.50
2023-05-09T05:06:33.422Z,8.90
2023-05-09T05:09:10.148Z,9.02
2023-05-09T05:11:57.081Z,8.15
2023-05-09T05:14:34.338Z,10.93
2023-05-09T05:17:10.116Z,10.63
2023-05-09T05:19:45.423Z,10.55
2023-05-09T05:22:20.544Z,11.45
2023-05-09T05:24:57.890Z,10.02
2023-05-09T05:27:32.368Z,11.38
2023-05-09T05:30:06.896Z,7.45
2023-05-09T05:32:41.944Z,7.63
2023-05-09T05:35:18.439Z,9.10
2023-05-09T05:37:52.851Z,7.25
2023-05-09T05:40:30.085Z,8.13
2023-05-09T05:43:08.518Z,9.63
2023-05-09T05:45:45.600Z,7.70
2023-05-09T05:48:24.124Z,7.63
2023-05-09T05:51:02.027Z,6.55
2023-05-09T05:53:38.983Z,7.22
2023-05-09T05:56:16.198Z,9.77
2023-05-09T05:58:51.186Z,9.50
2023-05-09T06:01:25.890Z,9.77
2023-05-09T06:04:00.561Z,8.77
2023-05-09T06:06:39.295Z,9.88
2023-05-09T06:09:13.588Z,7.22
2023-05-09T06:11:49.912Z,8.02
2023-05-09T06:14:24.501Z,8.15
2023-05-09T06:17:00.469Z,6.55
2023-05-09T06:19:36.000Z,7.60
2023-05-09T06:22:11.079Z,11.10
2023-05-09T06:24:45.733Z,7.47
2023-05-09T06:27:23.532Z,5.63
2023-05-09T06:29:58.079Z,10.30
2023-05-09T06:32:32.635Z,7.88
2023-05-09T06:35:07.302Z,7.43
2023-05-09T06:37:43.146Z,6.22
2023-05-09T06:40:17.516Z,8.48
2023-05-09T06:42:53.793Z,7.32
2023-05-09T06:45:28.865Z,6.57
2023-05-09T06:48:03.853Z,9.38
2023-05-09T06:50:38.554Z,9.25
2023-05-09T06:53:13.451Z,8.90
2023-05-09T06:55:48.256Z,8.13
2023-05-09T06:58:25.491Z,6.60
2023-05-09T07:01:02.000Z,7.40
2023-05-09T07:03:36.457Z,7.18
2023-05-09T07:06:11.508Z,8.20
2023-05-09T07:08:47.788Z,8.95
2023-05-09T07:11:22.762Z,10.15
2023-05-09T07:13:59.029Z,7.30
2023-05-09T07:16:35.220Z,7.90
2023-05-09T07:19:12.104Z,9.10
2023-05-09T07:21:46.888Z,9.45
2023-05-09T07:24:22.796Z,8.05
2023-05-09T07:26:57.439Z,9.85
2023-05-09T07:29:34.216Z,8.60
2023-05-09T07:32:08.642Z,8.15
2023-05-09T07:34:45.128Z,8.13
2023-05-09T07:37:19.878Z,9.75
2023-05-09T07:39:55.572Z,7.30
2023-05-09T07:42:29.908Z,7.00
2023-05-09T07:45:07.722Z,8.18
2023-05-09T07:47:42.099Z,7.43
2023-05-09T07:50:17.244Z,8.63
2023-05-09T07:52:51.967Z,6.88
2023-05-09T07:55:26.997Z,9.05
2023-05-09T07:58:01.385Z,7.65
2023-05-09T08:00:38.064Z,8.50
2023-05-09T08:03:33.481Z,7.25
2023-05-09T08:06:08.175Z,8.48
2023-05-09T08:08:42.533Z,7.53
2023-05-09T08:11:24.932Z,8.88
2023-05-09T08:13:59.298Z,7.10
2023-05-09T08:16:35.846Z,10.98
2023-05-09T08:19:10.338Z,8.57
2023-05-09T08:21:45.510Z,10.07
2023-05-09T08:24:19.867Z,7.85
2023-05-09T08:27:15.187Z,9.00
2023-05-09T08:29:49.571Z,9.65
2023-05-09T08:32:26.782Z,12.10
2023-05-09T08:35:01.198Z,8.02
2023-05-09T08:37:49.452Z,8.48
2023-05-09T08:40:23.978Z,12.05
2023-05-09T08:43:06.390Z,7.22
2023-05-09T08:45:45.982Z,7.18
2023-05-09T08:48:23.420Z,9.05
2023-05-09T08:51:16.434Z,8.48
2023-05-09T08:53:52.418Z,8.50
2023-05-09T08:56:28.103Z,10.57
2023-05-09T08:59:03.536Z,10.75
2023-05-09T09:01:41.186Z,10.35
2023-05-09T09:04:21.423Z,10.88
2023-05-09T09:06:57.111Z,8.55
2023-05-09T09:09:32.971Z,10.98
2023-05-09T09:12:11.375Z,10.27
2023-05-09T09:14:51.765Z,9.48
2023-05-09T09:17:26.685Z,8.68
2023-05-09T09:20:04.262Z,11.55
2023-05-09T09:22:38.893Z,12.50
2023-05-09T09:25:18.914Z,10.77
2023-05-09T09:27:59.433Z,10.60
2023-05-09T09:30:36.642Z,10.75
2023-05-09T09:33:12.107Z,11.18
2023-05-09T09:35:48.944Z,10.65
2023-05-09T09:38:23.669Z,10.98
2023-05-09T09:41:01.812Z,10.35
2023-05-09T09:43:36.709Z,12.52
2023-05-09T09:46:12.714Z,10.70
2023-05-09T09:48:57.754Z,8.00
2023-05-09T09:51:34.849Z,12.45
2023-05-09T09:54:19.983Z,11.15
2023-05-09T09:56:56.227Z,14.20
2023-05-09T09:59:31.037Z,10.55
2023-05-09T10:02:11.281Z,8.65
2023-05-09T10:04:48.018Z,10.68
2023-05-09T10:07:29.418Z,9.60
2023-05-09T10:10:07.896Z,10.18
2023-05-09T10:13:18.934Z,9.00
2023-05-09T10:16:00.171Z,10.85
2023-05-09T10:18:46.319Z,8.68
2023-05-09T10:21:21.382Z,8.25
2023-05-09T10:24:02.312Z,10.45
2023-05-09T10:26:55.285Z,11.65
2023-05-09T10:29:33.738Z,11.25
2023-05-09T10:32:11.728Z,10.05
2023-05-09T10:34:49.671Z,8.90
2023-05-09T10:37:26.334Z,9.18
2023-05-09T10:40:03.178Z,10.45
2023-05-09T10:42:38.594Z,10.02
2023-05-09T10:45:15.238Z,8.63
2023-05-09T10:48:06.046Z,10.70
2023-05-09T10:50:55.674Z,10.00
2023-05-09T10:53:45.825Z,7.30
2023-05-09T10:56:35.700Z,8.55
2023-05-09T10:59:17.793Z,9.88
2023-05-09T11:02:04.979Z,8.55
2023-05-09T11:04:39.733Z,8.48
2023-05-09T11:07:27.990Z,11.43
2023-05-09T11:10:13.235Z,8.48
2023-05-09T11:13:03.464Z,6.97
2023-05-09T11:15:56.194Z,11.20
2023-05-09T11:18:53.478Z,9.05
2023-05-09T11:21:34.001Z,7.80
2023-05-09T11:24:21.582Z,9.55
2023-05-09T11:26:56.710Z,9.02
2023-05-09T11:29:36.441Z,6.72
2023-05-09T11:32:11.770Z,10.68
2023-05-09T11:34:47.028Z,7.32
2023-05-09T11:37:22.269Z,7.38
2023-05-09T11:40:05.037Z,7.85
2023-05-09T11:42:40.232Z,8.18
2023-05-09T11:45:18.872Z,7.35
2023-05-09T11:47:54.274Z,8.65
2023-05-09T11:50:29.022Z,6.47
2023-05-09T11:53:04.187Z,7.07
2023-05-09T11:55:42.970Z,8.50
2023-05-09T11:58:18.679Z,6.60
2023-05-09T12:00:56.999Z,8.23
2023-05-09T12:03:32.482Z,7.18
2023-05-09T12:06:06.896Z,6.15
2023-05-09T12:08:41.559Z,7.22
2023-05-09T12:11:16.661Z,7.32
2023-05-09T12:13:54.222Z,8.35
2023-05-09T12:16:34.432Z,7.43
2023-05-09T12:19:09.465Z,7.18
2023-05-09T12:21:45.318Z,8.13
2023-05-09T12:24:26.289Z,6.55
2023-05-09T12:27:01.280Z,10.90
2023-05-09T12:29:36.371Z,6.90
2023-05-09T12:32:14.044Z,10.38
2023-05-09T12:34:50.099Z,5.50
2023-05-09T12:37:24.673Z,6.57
2023-05-09T12:40:09.182Z,8.50
2023-05-09T12:42:45.127Z,8.88
2023-05-09T12:45:21.506Z,9.18
2023-05-09T12:47:59.218Z,6.70
2023-05-09T12:50:38.620Z,9.00
2023-05-09T12:53:13.011Z,9.98
2023-05-09T12:55:48.688Z,8.90
2023-05-09T12:58:23.835Z,10.55
2023-05-09T13:00:59.717Z,7.45
2023-05-09T13:03:39.514Z,7.47
2023-05-09T13:06:17.758Z,8.23
2023-05-09T13:09:02.963Z,7.60
2023-05-09T13:11:39.398Z,7.32
2023-05-09T13:14:14.017Z,6.35
2023-05-09T13:16:49.480Z,9.07
2023-05-09T13:19:29.844Z,8.25
2023-05-09T13:22:04.513Z,9.15
2023-05-09T13:24:38.849Z,7.00
2023-05-09T13:27:14.993Z,9.82
2023-05-09T13:29:49.474Z,6.70
2023-05-09T13:32:27.290Z,8.73
2023-05-09T13:35:04.278Z,6.85
2023-05-09T13:37:38.712Z,8.75
2023-05-09T13:40:14.025Z,5.72
2023-05-09T13:42:50.533Z,6.85
2023-05-09T13:45:25.106Z,6.82
2023-05-09T13:47:59.486Z,9.75
2023-05-09T13:50:36.495Z,8.45
2023-05-09T13:53:11.095Z,6.72
2023-05-09T13:55:46.127Z,7.75
2023-05-09T13:58:20.678Z,6.32
2023-05-09T14:00:55.487Z,5.60
2023-05-09T14:03:30.431Z,6.80
2023-05-09T14:06:09.019Z,9.10
2023-05-09T14:08:43.482Z,8.02
2023-05-09T14:11:20.685Z,8.52
2023-05-09T14:13:56.323Z,8.93
2023-05-09T14:16:31.584Z,6.85
2023-05-09T14:19:05.928Z,6.05
2023-05-09T14:21:43.176Z,6.00
2023-05-09T14:24:17.891Z,7.85
2023-05-09T14:26:53.064Z,6.05
2023-05-09T14:29:27.352Z,5.13
2023-05-09T14:32:04.724Z,7.85
2023-05-09T14:34:39.345Z,6.28
2023-05-09T14:37:17.600Z,5.97
2023-05-09T14:39:52.203Z,6.20
2023-05-09T14:42:26.533Z,5.22
2023-05-09T14:45:01.182Z,5.43
2023-05-09T14:47:35.904Z,6.93
2023-05-09T14:50:11.768Z,4.13
2023-05-09T14:52:49.738Z,4.72
2023-05-09T14:55:25.146Z,3.80
2023-05-09T14:58:00.481Z,4.47
2023-05-09T15:00:35.787Z,4.75
2023-05-09T15:03:10.725Z,5.55
2023-05-09T15:05:45.976Z,6.70
2023-05-09T15:08:25.928Z,4.40
2023-05-09T15:11:01.812Z,4.32
2023-05-09T15:13:36.290Z,4.88
2023-05-09T15:16:11.312Z,6.47
2023-05-09T15:18:47.842Z,4.72
2023-05-09T15:21:22.371Z,4.53
2023-05-09T15:24:00.072Z,3.92
2023-05-09T15:26:36.337Z,3.53
2023-05-09T15:29:11.426Z,3.92
2023-05-09T15:31:45.800Z,5.22
2023-05-09T15:34:20.181Z,4.97
2023-05-09T15:36:54.866Z,4.35
2023-05-09T15:39:32.320Z,4.50
2023-05-09T15:42:08.755Z,3.78
2023-05-09T15:44:43.244Z,4.90
2023-05-09T15:47:18.069Z,4.57
2023-05-09T15:49:53.186Z,5.63
2023-05-09T15:52:27.546Z,4.97
2023-05-09T15:55:08.559Z,3.72
2023-05-09T15:57:43.225Z,4.28
2023-05-09T16:00:19.757Z,4.18
2023-05-09T16:02:54.147Z,5.00
2023-05-09T16:05:29.176Z,4.95
2023-05-09T16:08:03.782Z,4.10
2023-05-09T16:10:42.408Z,3.72
2023-05-09T16:13:16.807Z,4.10
2023-05-09T16:15:52.510Z,3.83
2023-05-09T16:18:27.213Z,3.70
2023-05-09T16:21:02.339Z,4.20
2023-05-09T16:23:36.685Z,5.25
2023-05-09T16:26:13.549Z,5.05
2023-05-09T16:28:48.281Z,5.65
2023-05-09T16:31:23.289Z,4.90
2023-05-09T16:34:00.707Z,4.45
2023-05-09T16:36:35.818Z,4.72
2023-05-09T16:39:11.615Z,3.80
2023-05-09T16:41:49.636Z,5.97
2023-05-09T16:44:24.080Z,6.03
2023-05-09T16:46:58.597Z,5.80
2023-05-09T16:49:33.280Z,3.78
2023-05-09T16:52:08.364Z,4.55
2023-05-09T16:54:42.796Z,4.18
2023-05-09T16:57:25.348Z,5.05
2023-05-09T17:00:00.266Z,4.72
2023-05-09T17:02:35.500Z,5.20
2023-05-09T17:05:10.230Z,7.22
2023-05-09T17:07:45.317Z,4.47
2023-05-09T17:10:20.076Z,5.03
2023-05-09T17:12:58.328Z,4.55
2023-05-09T17:15:32.953Z,4.93
2023-05-09T17:18:07.479Z,5.35
2023-05-09T17:20:43.498Z,5.88
2023-05-09T17:23:18.365Z,4.18
2023-05-09T17:25:53.150Z,5.57
2023-05-09T17:28:30.458Z,3.55
2023-05-09T17:31:06.044Z,4.63
2023-05-09T17:33:41.583Z,3.90
2023-05-09T17:36:16.011Z,5.40
2023-05-09T17:38:50.529Z,4.90
2023-05-09T17:41:25.541Z,5.75
2023-05-09T17:44:03.665Z,5.63
2023-05-09T17:46:38.392Z,6.80
2023-05-09T17:49:15.518Z,5.55
2023-05-09T17:51:50.213Z,6.20
2023-05-09T17:54:24.821Z,4.25
2023-05-09T17:57:02.891Z,5.63
2023-05-09T17:59:42.174Z,4.97
2023-05-09T18:02:18.422Z,5.20
2023-05-09T18:04:53.122Z,6.28
2023-05-09T18:07:27.821Z,4.88
2023-05-09T18:10:02.790Z,4.07
2023-05-09T18:12:38.301Z,4.97
2023-05-09T18:15:15.841Z,4.75
2023-05-09T18:17:50.915Z,4.40
2023-05-09T18:20:25.621Z,4.30
2023-05-09T18:23:01.143Z,4.60
2023-05-09T18:25:36.374Z,3.63
2023-05-09T18:28:11.025Z,5.03
2023-05-09T18:30:48.266Z,3.75
2023-05-09T18:33:23.529Z,3.80
2023-05-09T18:36:01.371Z,4.43
2023-05-09T18:38:39.711Z,3.75
2023-05-09T18:41:25.560Z,3.72
2023-05-09T18:44:03.844Z,3.38
2023-05-09T18:46:40.764Z,4.07
2023-05-09T18:49:15.457Z,5.00
2023-05-09T18:51:50.127Z,3.58
2023-05-09T18:54:25.086Z,3.53
2023-05-09T18:57:11.707Z,5.30
2023-05-09T19:00:11.315Z,3.42
2023-05-09T19:02:48.411Z,4.35
2023-05-09T19:05:24.136Z,3.95
2023-05-09T19:07:58.808Z,6.93
2023-05-09T19:10:33.832Z,4.75
2023-05-09T19:13:08.555Z,4.53
2023-05-09T19:15:44.370Z,3.88
2023-05-09T19:18:21.533Z,2.90
2023-05-09T19:20:56.163Z,6.60
2023-05-09T19:23:30.770Z,4.05
2023-05-09T19:26:06.795Z,2.92
2023-05-09T19:28:41.482Z,2.92
2023-05-09T19:31:16.289Z,4.10
2023-05-09T19:33:54.178Z,3.50
2023-05-09T19:36:30.142Z,3.42
2023-05-09T19:39:05.032Z,2.97
2023-05-09T19:41:39.982Z,3.95
2023-05-09T19:44:14.737Z,4.18
2023-05-09T19:46:50.179Z,2.78
2023-05-09T19:49:27.398Z,3.53
2023-05-09T19:52:02.475Z,3.97
2023-05-09T19:54:38.287Z,3.88
2023-05-09T19:57:14.929Z,3.20
2023-05-09T19:59:50.215Z,4.22
2023-05-09T20:02:25.180Z,4.10
2023-05-09T20:05:02.540Z,3.80
2023-05-09T20:07:52.717Z,3.17
2023-05-09T20:10:52.495Z,5.72
2023-05-09T20:13:27.952Z,4.82
2023-05-09T20:16:04.404Z,4.07
2023-05-09T20:18:39.074Z,3.75
2023-05-09T20:21:16.863Z,3.72
2023-05-09T20:23:51.636Z,5.70
2023-05-09T20:26:26.360Z,3.83
2023-05-09T20:29:02.996Z,5.88
2023-05-09T20:31:38.549Z,3.35
2023-05-09T20:34:17.623Z,5.22
2023-05-09T20:36:56.644Z,4.03
2023-05-09T20:39:31.309Z,6.43
2023-05-09T20:42:07.686Z,4.63
2023-05-09T20:44:44.943Z,4.32
2023-05-09T20:47:19.271Z,5.88
2023-05-09T20:50:12.797Z,4.32
2023-05-09T20:52:50.858Z,4.43
2023-05-09T20:55:25.713Z,4.22
2023-05-09T20:58:20.278Z,4.93
2023-05-09T21:00:55.307Z,4.05
2023-05-09T21:03:31.867Z,4.72
2023-05-09T21:06:06.576Z,4.50
2023-05-09T21:08:43.657Z,4.43
2023-05-09T21:11:18.863Z,4.80
2023-05-09T21:14:03.743Z,4.25
2023-05-09T21:16:38.385Z,4.65
2023-05-09T21:19:12.723Z,4.85
2023-05-09T21:21:47.282Z,4.40
2023-05-09T21:24:25.073Z,4.03
2023-05-09T21:27:00.806Z,4.85
2023-05-09T21:29:35.261Z,3.83
2023-05-09T21:32:16.104Z,6.45
2023-05-09T21:34:53.806Z,5.22
2023-05-09T21:37:28.628Z,5.63
2023-05-09T21:40:05.998Z,4.28
2023-05-09T21:42:42.632Z,4.63
2023-05-09T21:45:18.299Z,3.92
2023-05-09T21:47:53.181Z,4.75
2023-05-09T21:50:27.715Z,6.07
2023-05-09T21:53:02.555Z,4.93
2023-05-09T21:55:43.366Z,4.38
2023-05-09T21:58:17.676Z,7.30
2023-05-09T22:00:51.971Z,4.40
2023-05-09T22:03:29.581Z,5.50
2023-05-09T22:06:05.038Z,6.45
2023-05-09T22:08:39.814Z,5.50
2023-05-09T22:11:16.739Z,5.45
2023-05-09T22:13:51.939Z,5.03
2023-05-09T22:16:27.703Z,5.07
2023-05-09T22:19:04.574Z,6.63
2023-05-09T22:21:38.876Z,8.25
2023-05-09T22:24:13.704Z,6.05
2023-05-09T22:26:51.492Z,6.70
2023-05-09T22:29:27.168Z,6.57
2023-05-09T22:32:01.597Z,8.15
2023-05-09T22:34:36.185Z,6.80
2023-05-09T22:37:11.680Z,9.63
2023-05-09T22:39:46.178Z,5.32
2023-05-09T22:42:23.925Z,5.60
2023-05-09T22:44:58.520Z,7.70
2023-05-09T22:47:34.070Z,6.95
2023-05-09T22:50:08.790Z,9.35
2023-05-09T22:52:43.179Z,7.45
2023-05-09T22:55:17.956Z,8.30
2023-05-09T22:57:55.947Z,8.65
2023-05-09T23:00:30.633Z,9.60
2023-05-09T23:03:05.216Z,9.68
2023-05-09T23:05:40.282Z,5.63
2023-05-09T23:08:15.812Z,6.80
2023-05-09T23:10:50.308Z,8.93
2023-05-09T23:13:27.324Z,6.45
2023-05-09T23:16:02.181Z,5.43
2023-05-09T23:18:38.032Z,5.85
2023-05-09T23:21:12.538Z,6.10
2023-05-09T23:23:46.878Z,9.27
2023-05-09T23:26:22.309Z,5.38
2023-05-09T23:29:00.466Z,5.22
2023-05-09T23:31:35.191Z,4.72
2023-05-09T23:34:09.619Z,6.35
2023-05-09T23:36:44.376Z,4.85
2023-05-09T23:39:19.277Z,5.97
2023-05-09T23:41:53.953Z,5.03
2023-05-09T23:44:30.882Z,5.15
2023-05-09T23:47:05.547Z,5.82
2023-05-09T23:49:40.767Z,6.78
2023-05-09T23:52:15.403Z,6.97
2023-05-09T23:54:49.860Z,4.55
2023-05-09T23:57:24.614Z,5.55
